Terminal Aerodrome Forecast
Issued by NWS Buffalo, NY

Home | Current Version | Previous Version | Text Only | Print | Product List | Glossary On
Versions: 1 2 3 4 5 6 7 8 9 10 11 12 13 14 15 16 17 18 19 20 21 22 23 24 25 26 27 28 29 30 31
000
FTUS41 KBUF 042300 RRA
TAFBUF
TAF
KBUF 042341Z 0500/0524 25012G18KT 6SM HZ VCSH BKN040
     FM050300 28012KT P6SM SCT040 BKN130
      TEMPO 0503/0506 BKN040
     FM050800 32010KT P6SM SCT040 SCT130 OVC200
     FM051400 31010KT P6SM BKN140
     FM052000 28010KT P6SM BKN040=

USA.gov is the U.S. government's official web portal to all federal, state and local government web resources and services.